sensor_id;sensor_type;location;lat;lon;timestamp;pressure;altitude;pressure_sealevel;temperature
19948;BMP180;10135;50.702;7.276;2022-12-24T06:32:36;98956.00;;;13.80
19948;BMP180;10135;50.702;7.276;2022-12-24T06:34:37;98950.00;;;13.80
19948;BMP180;10135;50.702;7.276;2022-12-24T06:36:37;98958.00;;;13.80
19948;BMP180;10135;50.702;7.276;2022-12-24T06:38:38;98961.00;;;13.80
19948;BMP180;10135;50.702;7.276;2022-12-24T06:40:41;98957.00;;;13.80
19948;BMP180;10135;50.702;7.276;2022-12-24T06:42:42;98954.00;;;13.90
19948;BMP180;10135;50.702;7.276;2022-12-24T06:44:43;98957.00;;;13.90
19948;BMP180;10135;50.702;7.276;2022-12-24T06:46:43;98966.00;;;13.90
19948;BMP180;10135;50.702;7.276;2022-12-24T06:48:45;98963.00;;;13.90
19948;BMP180;10135;50.702;7.276;2022-12-24T06:50:46;98972.00;;;13.90
19948;BMP180;10135;50.702;7.276;2022-12-24T06:52:47;98967.00;;;13.90
19948;BMP180;10135;50.702;7.276;2022-12-24T06:54:47;98968.00;;;14.00
19948;BMP180;10135;50.702;7.276;2022-12-24T06:56:48;98971.00;;;14.00
19948;BMP180;10135;50.702;7.276;2022-12-24T06:58:49;98983.00;;;14.00
19948;BMP180;10135;50.702;7.276;2022-12-24T07:00:49;98985.00;;;14.00
19948;BMP180;10135;50.702;7.276;2022-12-24T07:02:50;98986.00;;;14.00
19948;BMP180;10135;50.702;7.276;2022-12-24T07:04:51;98996.00;;;14.00
19948;BMP180;10135;50.702;7.276;2022-12-24T07:06:51;98993.00;;;14.10
19948;BMP180;10135;50.702;7.276;2022-12-24T07:08:53;98992.00;;;14.10
19948;BMP180;10135;50.702;7.276;2022-12-24T07:10:54;98991.00;;;14.10
19948;BMP180;10135;50.702;7.276;2022-12-24T07:12:54;98995.00;;;14.10
19948;BMP180;10135;50.702;7.276;2022-12-24T07:14:55;98978.00;;;14.10
19948;BMP180;10135;50.702;7.276;2022-12-24T07:16:56;98988.00;;;14.10
19948;BMP180;10135;50.702;7.276;2022-12-24T07:18:57;98993.00;;;14.10
19948;BMP180;10135;50.702;7.276;2022-12-24T07:20:59;99002.00;;;14.10
19948;BMP180;10135;50.702;7.276;2022-12-24T07:23:00;99006.00;;;14.10
19948;BMP180;10135;50.702;7.276;2022-12-24T07:25:00;99008.00;;;14.20
19948;BMP180;10135;50.702;7.276;2022-12-24T07:27:01;99013.00;;;14.10
19948;BMP180;10135;50.702;7.276;2022-12-24T07:29:02;99021.00;;;14.10
19948;BMP180;10135;50.702;7.276;2022-12-24T07:31:03;99019.00;;;14.10
19948;BMP180;10135;50.702;7.276;2022-12-24T07:33:03;99025.00;;;14.10
19948;BMP180;10135;50.702;7.276;2022-12-24T07:35:05;99026.00;;;14.10
19948;BMP180;10135;50.702;7.276;2022-12-24T07:37:06;99027.00;;;14.10
19948;BMP180;10135;50.702;7.276;2022-12-24T07:39:07;99034.00;;;14.10
19948;BMP180;10135;50.702;7.276;2022-12-24T07:41:08;99039.00;;;14.10
19948;BMP180;10135;50.702;7.276;2022-12-24T07:43:08;99026.00;;;14.10
19948;BMP180;10135;50.702;7.276;2022-12-24T07:45:09;99039.00;;;14.10
19948;BMP180;10135;50.702;7.276;2022-12-24T07:47:10;99041.00;;;14.10
19948;BMP180;10135;50.702;7.276;2022-12-24T07:49:12;99043.00;;;14.00
19948;BMP180;10135;50.702;7.276;2022-12-24T07:51:13;99043.00;;;14.00
19948;BMP180;10135;50.702;7.276;2022-12-24T07:53:13;99044.00;;;14.00
19948;BMP180;10135;50.702;7.276;2022-12-24T07:55:14;99051.00;;;14.00
19948;BMP180;10135;50.702;7.276;2022-12-24T07:57:15;99051.00;;;14.00
19948;BMP180;10135;50.702;7.276;2022-12-24T07:59:15;99044.00;;;14.00
19948;BMP180;10135;50.702;7.276;2022-12-24T08:01:17;99043.00;;;14.10
19948;BMP180;10135;50.702;7.276;2022-12-24T08:03:19;99050.00;;;14.10
19948;BMP180;10135;50.702;7.276;2022-12-24T08:05:20;99052.00;;;14.10
19948;BMP180;10135;50.702;7.276;2022-12-24T08:07:21;99057.00;;;14.10
19948;BMP180;10135;50.702;7.276;2022-12-24T08:09:22;99062.00;;;14.10
19948;BMP180;10135;50.702;7.276;2022-12-24T08:11:22;99057.00;;;14.10
19948;BMP180;10135;50.702;7.276;2022-12-24T08:13:23;99064.00;;;14.20
19948;BMP180;10135;50.702;7.276;2022-12-24T08:15:23;99066.00;;;14.20
19948;BMP180;10135;50.702;7.276;2022-12-24T08:17:24;99077.00;;;14.20
19948;BMP180;10135;50.702;7.276;2022-12-24T08:19:25;99067.00;;;14.20
19948;BMP180;10135;50.702;7.276;2022-12-24T08:21:25;99077.00;;;14.20
19948;BMP180;10135;50.702;7.276;2022-12-24T08:23:26;99069.00;;;14.20
19948;BMP180;10135;50.702;7.276;2022-12-24T08:25:27;99081.00;;;14.20
19948;BMP180;10135;50.702;7.276;2022-12-24T08:27:28;99078.00;;;14.30
19948;BMP180;10135;50.702;7.276;2022-12-24T08:29:28;99071.00;;;14.30
19948;BMP180;10135;50.702;7.276;2022-12-24T08:31:29;99072.00;;;14.40
19948;BMP180;10135;50.702;7.276;2022-12-24T08:33:35;99084.00;;;14.50
19948;BMP180;10135;50.702;7.276;2022-12-24T08:35:36;99085.00;;;14.70
19948;BMP180;10135;50.702;7.276;2022-12-24T08:37:37;99086.00;;;14.90
19948;BMP180;10135;50.702;7.276;2022-12-24T08:39:38;99088.00;;;15.10
19948;BMP180;10135;50.702;7.276;2022-12-24T08:41:39;99087.00;;;15.20
19948;BMP180;10135;50.702;7.276;2022-12-24T08:43:40;99088.00;;;15.30
19948;BMP180;10135;50.702;7.276;2022-12-24T08:45:40;99093.00;;;15.40
19948;BMP180;10135;50.702;7.276;2022-12-24T08:47:41;99100.00;;;15.40
19948;BMP180;10135;50.702;7.276;2022-12-24T08:49:42;99098.00;;;15.50
19948;BMP180;10135;50.702;7.276;2022-12-24T08:51:42;99100.00;;;15.50
19948;BMP180;10135;50.702;7.276;2022-12-24T08:53:44;99103.00;;;15.50
19948;BMP180;10135;50.702;7.276;2022-12-24T08:55:45;99102.00;;;15.50
19948;BMP180;10135;50.702;7.276;2022-12-24T08:57:46;99106.00;;;15.50
19948;BMP180;10135;50.702;7.276;2022-12-24T08:59:47;99102.00;;;15.50
19948;BMP180;10135;50.702;7.276;2022-12-24T09:01:47;99107.00;;;15.50
19948;BMP180;10135;50.702;7.276;2022-12-24T09:03:48;99107.00;;;15.60
19948;BMP180;10135;50.702;7.276;2022-12-24T09:05:49;99115.00;;;15.60
19948;BMP180;10135;50.702;7.276;2022-12-24T09:07:49;99117.00;;;15.70
19948;BMP180;10135;50.702;7.276;2022-12-24T09:09:50;99114.00;;;15.80
19948;BMP180;10135;50.702;7.276;2022-12-24T09:11:52;99117.00;;;15.90
19948;BMP180;10135;50.702;7.276;2022-12-24T09:13:53;99129.00;;;16.00
19948;BMP180;10135;50.702;7.276;2022-12-24T09:15:54;99129.00;;;16.00
19948;BMP180;10135;50.702;7.276;2022-12-24T09:17:55;99131.00;;;16.00
19948;BMP180;10135;50.702;7.276;2022-12-24T09:19:56;99145.00;;;16.10
19948;BMP180;10135;50.702;7.276;2022-12-24T09:21:56;99142.00;;;16.10
19948;BMP180;10135;50.702;7.276;2022-12-24T09:23:57;99133.00;;;16.20
19948;BMP180;10135;50.702;7.276;2022-12-24T09:25:59;99148.00;;;16.20
19948;BMP180;10135;50.702;7.276;2022-12-24T09:28:00;99149.00;;;16.20
19948;BMP180;10135;50.702;7.276;2022-12-24T09:30:01;99152.00;;;16.30
19948;BMP180;10135;50.702;7.276;2022-12-24T09:32:01;99145.00;;;16.30
19948;BMP180;10135;50.702;7.276;2022-12-24T09:34:02;99155.00;;;16.30
19948;BMP180;10135;50.702;7.276;2022-12-24T09:36:04;99157.00;;;16.30
19948;BMP180;10135;50.702;7.276;2022-12-24T09:38:05;99173.00;;;16.30
19948;BMP180;10135;50.702;7.276;2022-12-24T09:40:08;99169.00;;;16.30
19948;BMP180;10135;50.702;7.276;2022-12-24T09:44:37;99174.00;;;16.30
19948;BMP180;10135;50.702;7.276;2022-12-24T09:46:44;99172.00;;;16.30
19948;BMP180;10135;50.702;7.276;2022-12-24T09:48:51;99173.00;;;16.30
19948;BMP180;10135;50.702;7.276;2022-12-24T09:51:02;99177.00;;;16.30
19948;BMP180;10135;50.702;7.276;2022-12-24T09:55:29;99183.00;;;16.30
19948;BMP180;10135;50.702;7.276;2022-12-24T09:57:37;99178.00;;;16.40
19948;BMP180;10135;50.702;7.276;2022-12-24T09:59:45;99175.00;;;16.40
19948;BMP180;10135;50.702;7.276;2022-12-24T10:01:48;99178.00;;;16.40
19948;BMP180;10135;50.702;7.276;2022-12-24T10:03:50;99191.00;;;16.40
19948;BMP180;10135;50.702;7.276;2022-12-24T10:08:13;99190.00;;;16.40
19948;BMP180;10135;50.702;7.276;2022-12-24T10:10:37;99194.00;;;16.40
19948;BMP180;10135;50.702;7.276;2022-12-24T10:13:17;99203.00;;;16.40
19948;BMP180;10135;50.702;7.276;2022-12-24T10:15:34;99198.00;;;16.40
19948;BMP180;10135;50.702;7.276;2022-12-24T10:20:43;99203.00;;;16.30
19948;BMP180;10135;50.702;7.276;2022-12-24T10:23:03;99204.00;;;16.20
19948;BMP180;10135;50.702;7.276;2022-12-24T10:25:16;99207.00;;;16.20
19948;BMP180;10135;50.702;7.276;2022-12-24T10:27:23;99198.00;;;16.10
19948;BMP180;10135;50.702;7.276;2022-12-24T10:29:31;99187.00;;;16.10
19948;BMP180;10135;50.702;7.276;2022-12-24T10:31:39;99195.00;;;16.10
19948;BMP180;10135;50.702;7.276;2022-12-24T10:33:44;99197.00;;;16.00
19948;BMP180;10135;50.702;7.276;2022-12-24T10:35:52;99193.00;;;16.00
19948;BMP180;10135;50.702;7.276;2022-12-24T10:37:54;99201.00;;;16.00
19948;BMP180;10135;50.702;7.276;2022-12-24T10:39:59;99201.00;;;16.00
19948;BMP180;10135;50.702;7.276;2022-12-24T10:42:04;99208.00;;;15.90
19948;BMP180;10135;50.702;7.276;2022-12-24T10:44:07;99204.00;;;15.90
19948;BMP180;10135;50.702;7.276;2022-12-24T10:46:26;99214.00;;;15.90
19948;BMP180;10135;50.702;7.276;2022-12-24T10:48:51;99215.00;;;15.90
19948;BMP180;10135;50.702;7.276;2022-12-24T10:53:23;99219.00;;;15.80
19948;BMP180;10135;50.702;7.276;2022-12-24T10:55:24;99217.00;;;15.90
19948;BMP180;10135;50.702;7.276;2022-12-24T10:57:27;99208.00;;;15.80
19948;BMP180;10135;50.702;7.276;2022-12-24T11:01:47;99212.00;;;15.70
19948;BMP180;10135;50.702;7.276;2022-12-24T11:04:00;99219.00;;;15.70
19948;BMP180;10135;50.702;7.276;2022-12-24T11:06:13;99210.00;;;15.70
19948;BMP180;10135;50.702;7.276;2022-12-24T11:08:17;99203.00;;;15.80
19948;BMP180;10135;50.702;7.276;2022-12-24T11:10:22;99199.00;;;15.70
19948;BMP180;10135;50.702;7.276;2022-12-24T11:12:47;99200.00;;;15.70
19948;BMP180;10135;50.702;7.276;2022-12-24T11:17:18;99204.00;;;15.70
19948;BMP180;10135;50.702;7.276;2022-12-24T11:19:36;99205.00;;;15.70
19948;BMP180;10135;50.702;7.276;2022-12-24T11:21:39;99208.00;;;15.80
19948;BMP180;10135;50.702;7.276;2022-12-24T11:23:53;99212.00;;;15.70
19948;BMP180;10135;50.702;7.276;2022-12-24T11:25:56;99219.00;;;15.80
19948;BMP180;10135;50.702;7.276;2022-12-24T11:28:24;99212.00;;;15.80
19948;BMP180;10135;50.702;7.276;2022-12-24T11:30:30;99201.00;;;15.80
19948;BMP180;10135;50.702;7.276;2022-12-24T11:32:31;99210.00;;;15.90
19948;BMP180;10135;50.702;7.276;2022-12-24T11:34:32;99210.00;;;15.90
19948;BMP180;10135;50.702;7.276;2022-12-24T11:36:33;99202.00;;;15.90
19948;BMP180;10135;50.702;7.276;2022-12-24T11:38:34;99204.00;;;15.90
19948;BMP180;10135;50.702;7.276;2022-12-24T11:40:42;99204.00;;;15.90
19948;BMP180;10135;50.702;7.276;2022-12-24T11:42:44;99209.00;;;15.90
19948;BMP180;10135;50.702;7.276;2022-12-24T11:44:49;99213.00;;;15.90
19948;BMP180;10135;50.702;7.276;2022-12-24T11:46:50;99211.00;;;15.90
19948;BMP180;10135;50.702;7.276;2022-12-24T11:51:26;99207.00;;;15.80
19948;BMP180;10135;50.702;7.276;2022-12-24T11:53:40;99208.00;;;15.80
19948;BMP180;10135;50.702;7.276;2022-12-24T11:55:56;99213.00;;;15.80
19948;BMP180;10135;50.702;7.276;2022-12-24T11:58:05;99207.00;;;15.80
19948;BMP180;10135;50.702;7.276;2022-12-24T12:00:11;99212.00;;;15.80
19948;BMP180;10135;50.702;7.276;2022-12-24T12:02:27;99213.00;;;15.70
19948;BMP180;10135;50.702;7.276;2022-12-24T12:04:37;99208.00;;;15.70
19948;BMP180;10135;50.702;7.276;2022-12-24T12:07:00;99203.00;;;15.80
19948;BMP180;10135;50.702;7.276;2022-12-24T12:09:12;99198.00;;;15.70
19948;BMP180;10135;50.702;7.276;2022-12-24T12:11:14;99199.00;;;15.80
19948;BMP180;10135;50.702;7.276;2022-12-24T12:13:26;99211.00;;;15.80
19948;BMP180;10135;50.702;7.276;2022-12-24T12:15:39;99210.00;;;15.80
19948;BMP180;10135;50.702;7.276;2022-12-24T12:17:50;99210.00;;;15.80
19948;BMP180;10135;50.702;7.276;2022-12-24T12:20:13;99207.00;;;15.80
19948;BMP180;10135;50.702;7.276;2022-12-24T12:22:33;99213.00;;;15.80
19948;BMP180;10135;50.702;7.276;2022-12-24T12:24:47;99214.00;;;15.80
19948;BMP180;10135;50.702;7.276;2022-12-24T12:29:35;99220.00;;;15.80
19948;BMP180;10135;50.702;7.276;2022-12-24T12:31:44;99220.00;;;15.80
19948;BMP180;10135;50.702;7.276;2022-12-24T12:34:03;99231.00;;;15.80
19948;BMP180;10135;50.702;7.276;2022-12-24T12:36:09;99229.00;;;15.80
19948;BMP180;10135;50.702;7.276;2022-12-24T12:38:20;99231.00;;;15.80
19948;BMP180;10135;50.702;7.276;2022-12-24T12:40:35;99228.00;;;15.80
19948;BMP180;10135;50.702;7.276;2022-12-24T12:42:38;99230.00;;;15.80
19948;BMP180;10135;50.702;7.276;2022-12-24T12:49:23;99223.00;;;15.80
19948;BMP180;10135;50.702;7.276;2022-12-24T12:52:06;99225.00;;;15.80
19948;BMP180;10135;50.702;7.276;2022-12-24T12:54:54;99228.00;;;15.80
19948;BMP180;10135;50.702;7.276;2022-12-24T12:57:07;99225.00;;;15.80
19948;BMP180;10135;50.702;7.276;2022-12-24T12:59:32;99227.00;;;15.80
19948;BMP180;10135;50.702;7.276;2022-12-24T13:06:55;99234.00;;;15.80
19948;BMP180;10135;50.702;7.276;2022-12-24T13:16:41;99226.00;;;15.90
19948;BMP180;10135;50.702;7.276;2022-12-24T13:19:21;99225.00;;;15.90
19948;BMP180;10135;50.702;7.276;2022-12-24T13:21:27;99227.00;;;16.00
19948;BMP180;10135;50.702;7.276;2022-12-24T13:23:29;99235.00;;;16.00
19948;BMP180;10135;50.702;7.276;2022-12-24T13:25:40;99226.00;;;16.00
19948;BMP180;10135;50.702;7.276;2022-12-24T13:27:41;99235.00;;;16.10
19948;BMP180;10135;50.702;7.276;2022-12-24T13:30:05;99233.00;;;16.00
19948;BMP180;10135;50.702;7.276;2022-12-24T13:34:35;99242.00;;;16.10
19948;BMP180;10135;50.702;7.276;2022-12-24T13:37:22;99244.00;;;16.10
19948;BMP180;10135;50.702;7.276;2022-12-24T13:39:24;99256.00;;;16.10
19948;BMP180;10135;50.702;7.276;2022-12-24T13:46:01;99263.00;;;16.10
19948;BMP180;10135;50.702;7.276;2022-12-24T13:50:23;99258.00;;;16.10
19948;BMP180;10135;50.702;7.276;2022-12-24T13:52:29;99269.00;;;16.10
19948;BMP180;10135;50.702;7.276;2022-12-24T13:54:31;99262.00;;;16.10
19948;BMP180;10135;50.702;7.276;2022-12-24T13:56:35;99265.00;;;16.10
19948;BMP180;10135;50.702;7.276;2022-12-24T13:58:43;99268.00;;;16.10
19948;BMP180;10135;50.702;7.276;2022-12-24T14:00:55;99274.00;;;16.10
19948;BMP180;10135;50.702;7.276;2022-12-24T14:07:35;99269.00;;;16.10
19948;BMP180;10135;50.702;7.276;2022-12-24T14:09:36;99276.00;;;16.10
19948;BMP180;10135;50.702;7.276;2022-12-24T14:16:23;99287.00;;;16.10
19948;BMP180;10135;50.702;7.276;2022-12-24T14:18:25;99288.00;;;16.10
19948;BMP180;10135;50.702;7.276;2022-12-24T14:20:26;99286.00;;;16.10
19948;BMP180;10135;50.702;7.276;2022-12-24T14:22:44;99281.00;;;16.10
19948;BMP180;10135;50.702;7.276;2022-12-24T14:24:54;99275.00;;;16.10
19948;BMP180;10135;50.702;7.276;2022-12-24T14:27:12;99284.00;;;16.10
19948;BMP180;10135;50.702;7.276;2022-12-24T14:29:31;99287.00;;;16.10
19948;BMP180;10135;50.702;7.276;2022-12-24T14:31:32;99284.00;;;16.10
19948;BMP180;10135;50.702;7.276;2022-12-24T14:33:34;99290.00;;;16.10
19948;BMP180;10135;50.702;7.276;2022-12-24T14:35:37;99293.00;;;16.10
19948;BMP180;10135;50.702;7.276;2022-12-24T14:37:47;99299.00;;;16.10
19948;BMP180;10135;50.702;7.276;2022-12-24T14:39:48;99298.00;;;16.10
19948;BMP180;10135;50.702;7.276;2022-12-24T14:42:27;99296.00;;;16.00
19948;BMP180;10135;50.702;7.276;2022-12-24T14:52:22;99290.00;;;16.00
19948;BMP180;10135;50.702;7.276;2022-12-24T14:54:33;99294.00;;;16.00
19948;BMP180;10135;50.702;7.276;2022-12-24T14:56:35;99304.00;;;16.00
19948;BMP180;10135;50.702;7.276;2022-12-24T14:58:37;99313.00;;;16.00
19948;BMP180;10135;50.702;7.276;2022-12-24T15:00:42;99312.00;;;15.90
19948;BMP180;10135;50.702;7.276;2022-12-24T15:02:50;99311.00;;;15.90
19948;BMP180;10135;50.702;7.276;2022-12-24T15:05:16;99317.00;;;15.90
19948;BMP180;10135;50.702;7.276;2022-12-24T15:07:20;99313.00;;;15.90
19948;BMP180;10135;50.702;7.276;2022-12-24T15:09:28;99325.00;;;15.90
19948;BMP180;10135;50.702;7.276;2022-12-24T15:11:30;99330.00;;;15.90
19948;BMP180;10135;50.702;7.276;2022-12-24T15:13:41;99330.00;;;15.80
19948;BMP180;10135;50.702;7.276;2022-12-24T15:15:45;99328.00;;;15.80
19948;BMP180;10135;50.702;7.276;2022-12-24T15:17:46;99329.00;;;15.80
19948;BMP180;10135;50.702;7.276;2022-12-24T15:19:50;99335.00;;;15.80
19948;BMP180;10135;50.702;7.276;2022-12-24T15:21:53;99343.00;;;15.80
19948;BMP180;10135;50.702;7.276;2022-12-24T15:23:55;99352.00;;;15.70
19948;BMP180;10135;50.702;7.276;2022-12-24T15:26:31;99356.00;;;15.70
19948;BMP180;10135;50.702;7.276;2022-12-24T15:28:37;99358.00;;;15.70
19948;BMP180;10135;50.702;7.276;2022-12-24T15:30:38;99364.00;;;15.70
19948;BMP180;10135;50.702;7.276;2022-12-24T15:32:39;99361.00;;;15.70
19948;BMP180;10135;50.702;7.276;2022-12-24T15:34:44;99362.00;;;15.60
19948;BMP180;10135;50.702;7.276;2022-12-24T15:36:45;99357.00;;;15.70
19948;BMP180;10135;50.702;7.276;2022-12-24T15:38:50;99361.00;;;15.60
19948;BMP180;10135;50.702;7.276;2022-12-24T15:40:53;99355.00;;;15.60
19948;BMP180;10135;50.702;7.276;2022-12-24T15:42:54;99364.00;;;15.60
19948;BMP180;10135;50.702;7.276;2022-12-24T15:45:06;99358.00;;;15.60
19948;BMP180;10135;50.702;7.276;2022-12-24T15:47:18;99355.00;;;15.60
19948;BMP180;10135;50.702;7.276;2022-12-24T15:49:20;99349.00;;;15.60
19948;BMP180;10135;50.702;7.276;2022-12-24T15:51:31;99357.00;;;15.50
19948;BMP180;10135;50.702;7.276;2022-12-24T15:53:41;99363.00;;;15.50
19948;BMP180;10135;50.702;7.276;2022-12-24T15:56:27;99371.00;;;15.50
19948;BMP180;10135;50.702;7.276;2022-12-24T15:58:41;99380.00;;;15.50
19948;BMP180;10135;50.702;7.276;2022-12-24T16:00:42;99380.00;;;15.40
19948;BMP180;10135;50.702;7.276;2022-12-24T16:02:43;99372.00;;;15.40
19948;BMP180;10135;50.702;7.276;2022-12-24T16:04:45;99371.00;;;15.30
19948;BMP180;10135;50.702;7.276;2022-12-24T16:07:02;99375.00;;;15.30
19948;BMP180;10135;50.702;7.276;2022-12-24T16:09:31;99377.00;;;15.30
19948;BMP180;10135;50.702;7.276;2022-12-24T16:11:35;99376.00;;;15.30
19948;BMP180;10135;50.702;7.276;2022-12-24T16:13:48;99385.00;;;15.20
19948;BMP180;10135;50.702;7.276;2022-12-24T16:15:56;99381.00;;;15.30
19948;BMP180;10135;50.702;7.276;2022-12-24T16:17:58;99378.00;;;15.20
19948;BMP180;10135;50.702;7.276;2022-12-24T16:20:07;99371.00;;;15.20
19948;BMP180;10135;50.702;7.276;2022-12-24T16:22:19;99375.00;;;15.20
19948;BMP180;10135;50.702;7.276;2022-12-24T16:24:35;99371.00;;;15.20
19948;BMP180;10135;50.702;7.276;2022-12-24T16:26:35;99372.00;;;15.10
19948;BMP180;10135;50.702;7.276;2022-12-24T16:28:37;99368.00;;;15.10
19948;BMP180;10135;50.702;7.276;2022-12-24T16:30:38;99377.00;;;15.10
19948;BMP180;10135;50.702;7.276;2022-12-24T16:32:39;99371.00;;;15.00
19948;BMP180;10135;50.702;7.276;2022-12-24T16:34:41;99369.00;;;15.00
19948;BMP180;10135;50.702;7.276;2022-12-24T16:36:44;99368.00;;;15.00
19948;BMP180;10135;50.702;7.276;2022-12-24T16:38:45;99360.00;;;14.90
19948;BMP180;10135;50.702;7.276;2022-12-24T16:41:04;99360.00;;;14.90
19948;BMP180;10135;50.702;7.276;2022-12-24T16:43:05;99355.00;;;14.80
19948;BMP180;10135;50.702;7.276;2022-12-24T16:45:27;99367.00;;;14.80
19948;BMP180;10135;50.702;7.276;2022-12-24T16:47:33;99367.00;;;14.70
19948;BMP180;10135;50.702;7.276;2022-12-24T16:49:36;99370.00;;;14.70
19948;BMP180;10135;50.702;7.276;2022-12-24T16:51:40;99367.00;;;14.70
19948;BMP180;10135;50.702;7.276;2022-12-24T16:53:40;99371.00;;;14.70
19948;BMP180;10135;50.702;7.276;2022-12-24T16:55:42;99375.00;;;14.60
19948;BMP180;10135;50.702;7.276;2022-12-24T16:57:43;99371.00;;;14.60
19948;BMP180;10135;50.702;7.276;2022-12-24T16:59:44;99380.00;;;14.60
19948;BMP180;10135;50.702;7.276;2022-12-24T17:01:46;99377.00;;;14.60
19948;BMP180;10135;50.702;7.276;2022-12-24T17:03:47;99377.00;;;14.60
19948;BMP180;10135;50.702;7.276;2022-12-24T17:05:48;99382.00;;;14.60
19948;BMP180;10135;50.702;7.276;2022-12-24T17:07:50;99385.00;;;14.60
19948;BMP180;10135;50.702;7.276;2022-12-24T17:09:50;99380.00;;;14.60
19948;BMP180;10135;50.702;7.276;2022-12-24T17:11:51;99393.00;;;14.60
19948;BMP180;10135;50.702;7.276;2022-12-24T17:13:52;99398.00;;;14.70
19948;BMP180;10135;50.702;7.276;2022-12-24T17:15:52;99399.00;;;14.60
19948;BMP180;10135;50.702;7.276;2022-12-24T17:17:53;99404.00;;;14.70
19948;BMP180;10135;50.702;7.276;2022-12-24T17:19:55;99403.00;;;14.70
19948;BMP180;10135;50.702;7.276;2022-12-24T17:21:56;99402.00;;;14.60
19948;BMP180;10135;50.702;7.276;2022-12-24T17:23:56;99408.00;;;14.60
19948;BMP180;10135;50.702;7.276;2022-12-24T17:25:57;99409.00;;;14.60
19948;BMP180;10135;50.702;7.276;2022-12-24T17:27:58;99404.00;;;14.60
19948;BMP180;10135;50.702;7.276;2022-12-24T17:29:59;99402.00;;;14.60
19948;BMP180;10135;50.702;7.276;2022-12-24T17:31:59;99401.00;;;14.50
19948;BMP180;10135;50.702;7.276;2022-12-24T17:34:00;99401.00;;;14.50
19948;BMP180;10135;50.702;7.276;2022-12-24T17:36:02;99401.00;;;14.50
19948;BMP180;10135;50.702;7.276;2022-12-24T17:38:03;99398.00;;;14.50
19948;BMP180;10135;50.702;7.276;2022-12-24T17:40:04;99395.00;;;14.50
19948;BMP180;10135;50.702;7.276;2022-12-24T17:42:05;99393.00;;;14.40
19948;BMP180;10135;50.702;7.276;2022-12-24T17:44:05;99393.00;;;14.40
19948;BMP180;10135;50.702;7.276;2022-12-24T17:46:21;99392.00;;;14.40
19948;BMP180;10135;50.702;7.276;2022-12-24T17:48:21;99394.00;;;14.40
19948;BMP180;10135;50.702;7.276;2022-12-24T17:50:22;99393.00;;;14.40
19948;BMP180;10135;50.702;7.276;2022-12-24T17:52:23;99404.00;;;14.40
19948;BMP180;10135;50.702;7.276;2022-12-24T17:54:23;99413.00;;;14.30
19948;BMP180;10135;50.702;7.276;2022-12-24T17:56:25;99412.00;;;14.30
19948;BMP180;10135;50.702;7.276;2022-12-24T17:58:27;99417.00;;;14.30
19948;BMP180;10135;50.702;7.276;2022-12-24T18:00:28;99411.00;;;14.30
19948;BMP180;10135;50.702;7.276;2022-12-24T18:02:29;99405.00;;;14.20
19948;BMP180;10135;50.702;7.276;2022-12-24T18:04:29;99411.00;;;14.20
19948;BMP180;10135;50.702;7.276;2022-12-24T18:06:30;99409.00;;;14.20
19948;BMP180;10135;50.702;7.276;2022-12-24T18:08:31;99406.00;;;14.20
19948;BMP180;10135;50.702;7.276;2022-12-24T18:10:31;99416.00;;;14.10
19948;BMP180;10135;50.702;7.276;2022-12-24T18:12:32;99424.00;;;14.10
19948;BMP180;10135;50.702;7.276;2022-12-24T18:14:33;99416.00;;;14.10
19948;BMP180;10135;50.702;7.276;2022-12-24T18:16:37;99421.00;;;14.10
19948;BMP180;10135;50.702;7.276;2022-12-24T18:18:38;99427.00;;;14.10
19948;BMP180;10135;50.702;7.276;2022-12-24T18:20:39;99427.00;;;14.00
19948;BMP180;10135;50.702;7.276;2022-12-24T18:22:39;99429.00;;;14.00
19948;BMP180;10135;50.702;7.276;2022-12-24T18:24:40;99431.00;;;14.00
19948;BMP180;10135;50.702;7.276;2022-12-24T18:26:43;99435.00;;;14.00
19948;BMP180;10135;50.702;7.276;2022-12-24T18:28:45;99429.00;;;13.90
19948;BMP180;10135;50.702;7.276;2022-12-24T18:30:59;99429.00;;;13.90
19948;BMP180;10135;50.702;7.276;2022-12-24T18:33:00;99438.00;;;13.90
19948;BMP180;10135;50.702;7.276;2022-12-24T18:35:01;99441.00;;;13.90
19948;BMP180;10135;50.702;7.276;2022-12-24T18:37:01;99446.00;;;13.90
19948;BMP180;10135;50.702;7.276;2022-12-24T18:39:02;99449.00;;;13.80
19948;BMP180;10135;50.702;7.276;2022-12-24T18:41:13;99439.00;;;13.80
19948;BMP180;10135;50.702;7.276;2022-12-24T18:43:14;99441.00;;;13.80
19948;BMP180;10135;50.702;7.276;2022-12-24T18:47:16;99441.00;;;13.70
19948;BMP180;10135;50.702;7.276;2022-12-24T18:49:17;99431.00;;;13.70
19948;BMP180;10135;50.702;7.276;2022-12-24T18:51:20;99433.00;;;13.60
19948;BMP180;10135;50.702;7.276;2022-12-24T18:53:22;99432.00;;;13.60
19948;BMP180;10135;50.702;7.276;2022-12-24T18:55:23;99427.00;;;13.60
19948;BMP180;10135;50.702;7.276;2022-12-24T18:57:23;99418.00;;;13.60
19948;BMP180;10135;50.702;7.276;2022-12-24T18:59:24;99418.00;;;13.50
19948;BMP180;10135;50.702;7.276;2022-12-24T19:01:29;99412.00;;;13.50
19948;BMP180;10135;50.702;7.276;2022-12-24T19:03:30;99413.00;;;13.50
19948;BMP180;10135;50.702;7.276;2022-12-24T19:05:30;99412.00;;;13.50
19948;BMP180;10135;50.702;7.276;2022-12-24T19:07:31;99412.00;;;13.40
19948;BMP180;10135;50.702;7.276;2022-12-24T19:09:32;99413.00;;;13.40
19948;BMP180;10135;50.702;7.276;2022-12-24T19:11:34;99414.00;;;13.40
19948;BMP180;10135;50.702;7.276;2022-12-24T19:13:35;99406.00;;;13.40
19948;BMP180;10135;50.702;7.276;2022-12-24T19:15:39;99404.00;;;13.40
19948;BMP180;10135;50.702;7.276;2022-12-24T19:17:41;99399.00;;;13.30
19948;BMP180;10135;50.702;7.276;2022-12-24T19:19:42;99405.00;;;13.30
19948;BMP180;10135;50.702;7.276;2022-12-24T19:21:42;99401.00;;;13.30
19948;BMP180;10135;50.702;7.276;2022-12-24T19:23:44;99402.00;;;13.30
19948;BMP180;10135;50.702;7.276;2022-12-24T19:25:45;99411.00;;;13.30
19948;BMP180;10135;50.702;7.276;2022-12-24T19:27:45;99419.00;;;13.20
19948;BMP180;10135;50.702;7.276;2022-12-24T19:29:46;99432.00;;;13.20
19948;BMP180;10135;50.702;7.276;2022-12-24T19:31:46;99427.00;;;13.20
19948;BMP180;10135;50.702;7.276;2022-12-24T19:33:54;99421.00;;;13.20
19948;BMP180;10135;50.702;7.276;2022-12-24T19:35:55;99424.00;;;13.20
19948;BMP180;10135;50.702;7.276;2022-12-24T19:37:56;99433.00;;;13.20
19948;BMP180;10135;50.702;7.276;2022-12-24T19:39:57;99437.00;;;13.20
19948;BMP180;10135;50.702;7.276;2022-12-24T19:42:00;99438.00;;;13.20